Terminal Aerodrome Forecast
Issued by NWS Melbourne, FL

Home | Current Version | Previous Version | Text Only | Print | Product List | Glossary On
Versions: 1 2 3 4 5 6 7 8 9 10 11 12 13 14 15
000
FTUS42 KMLB 202337
TAFMLB
TAF
KMLB 202337Z 2100/2124 08011KT P6SM SCT050 BKN250
     FM210500 09006KT P6SM SCT050 BKN100
     FM211300 11007KT P6SM VCSH BKN050 OVC080
     FM211600 13011KT 5SM -RA BKN035 OVC050
      TEMPO 2117/2121 3SM RA BR BKN020 OVC040
     FM212200 09005KT 5SM -RA BR SCT030 OVC050=

USA.gov is the U.S. government's official web portal to all federal, state and local government web resources and services.